sensor_id;sensor_type;location;lat;lon;timestamp;pressure;altitude;pressure_sealevel;temperature;humidity
24620;BME280;12763;55.802;37.404;2022-08-04T00:01:27;99890.28;;;26.72;48.31
24620;BME280;12763;55.802;37.404;2022-08-04T00:03:57;99883.50;;;26.59;48.18
24620;BME280;12763;55.802;37.404;2022-08-04T00:09:10;99883.50;;;26.59;48.77
24620;BME280;12763;55.802;37.404;2022-08-04T00:11:44;99885.41;;;26.50;49.28
24620;BME280;12763;55.802;37.404;2022-08-04T00:14:15;99886.66;;;26.44;49.15
24620;BME280;12763;55.802;37.404;2022-08-04T00:16:46;99889.59;;;26.39;49.69
24620;BME280;12763;55.802;37.404;2022-08-04T00:19:17;99888.31;;;26.59;49.23
24620;BME280;12763;55.802;37.404;2022-08-04T00:21:51;99887.69;;;26.75;48.97
24620;BME280;12763;55.802;37.404;2022-08-04T00:24:21;99886.94;;;26.97;48.22
24620;BME280;12763;55.802;37.404;2022-08-04T00:26:48;99893.94;;;27.00;48.25
24620;BME280;12763;55.802;37.404;2022-08-04T00:29:17;99887.91;;;26.93;48.57
24620;BME280;12763;55.802;37.404;2022-08-04T00:31:46;99889.44;;;26.99;48.48
24620;BME280;12763;55.802;37.404;2022-08-04T00:34:13;99877.63;;;26.83;49.30
24620;BME280;12763;55.802;37.404;2022-08-04T00:36:41;99882.66;;;26.72;49.80
24620;BME280;12763;55.802;37.404;2022-08-04T00:39:11;99882.84;;;26.62;50.13
24620;BME280;12763;55.802;37.404;2022-08-04T00:50:02;99889.16;;;26.59;51.07
24620;BME280;12763;55.802;37.404;2022-08-04T00:52:40;99897.72;;;26.68;51.55
24620;BME280;12763;55.802;37.404;2022-08-04T01:01:11;99892.31;;;26.44;52.90
24620;BME280;12763;55.802;37.404;2022-08-04T01:04:14;99899.75;;;26.67;52.71
24620;BME280;12763;55.802;37.404;2022-08-04T01:09:32;99904.88;;;26.38;52.62
24620;BME280;12763;55.802;37.404;2022-08-04T01:20:09;99913.78;;;27.00;51.70
24620;BME280;12763;55.802;37.404;2022-08-04T01:30:53;99910.50;;;27.06;50.71
24620;BME280;12763;55.802;37.404;2022-08-04T01:33:22;99916.41;;;26.82;51.41
24620;BME280;12763;55.802;37.404;2022-08-04T01:35:54;99921.44;;;26.86;52.02
24620;BME280;12763;55.802;37.404;2022-08-04T01:40:59;99922.34;;;27.08;52.05
24620;BME280;12763;55.802;37.404;2022-08-04T01:43:29;99925.59;;;27.02;51.96
24620;BME280;12763;55.802;37.404;2022-08-04T01:46:03;99920.56;;;26.99;52.23
24620;BME280;12763;55.802;37.404;2022-08-04T01:48:30;99915.34;;;27.06;51.79
24620;BME280;12763;55.802;37.404;2022-08-04T01:51:03;99923.19;;;27.09;51.14
24620;BME280;12763;55.802;37.404;2022-08-04T01:53:32;99929.31;;;26.89;51.30
24620;BME280;12763;55.802;37.404;2022-08-04T01:56:00;99917.25;;;26.69;51.58
24620;BME280;12763;55.802;37.404;2022-08-04T01:58:32;99921.09;;;26.73;51.70
24620;BME280;12763;55.802;37.404;2022-08-04T02:01:05;99929.19;;;26.94;51.30
24620;BME280;12763;55.802;37.404;2022-08-04T02:03:33;99915.97;;;27.03;50.76
24620;BME280;12763;55.802;37.404;2022-08-04T02:06:31;99929.25;;;27.16;50.64
24620;BME280;12763;55.802;37.404;2022-08-04T02:09:16;99925.19;;;27.08;50.40
24620;BME280;12763;55.802;37.404;2022-08-04T02:12:09;99926.53;;;27.11;50.29
24620;BME280;12763;55.802;37.404;2022-08-04T02:15:10;99932.31;;;27.06;50.07
24620;BME280;12763;55.802;37.404;2022-08-04T02:18:03;99929.41;;;27.33;49.40
24620;BME280;12763;55.802;37.404;2022-08-04T02:20:37;99919.34;;;27.27;48.77
24620;BME280;12763;55.802;37.404;2022-08-04T02:23:09;99925.91;;;27.14;49.14
24620;BME280;12763;55.802;37.404;2022-08-04T02:25:55;99921.16;;;27.23;49.23
24620;BME280;12763;55.802;37.404;2022-08-04T02:31:30;99931.69;;;27.09;49.91
24620;BME280;12763;55.802;37.404;2022-08-04T02:34:06;99938.63;;;26.75;49.72
24620;BME280;12763;55.802;37.404;2022-08-04T02:36:40;99930.75;;;26.72;49.24
24620;BME280;12763;55.802;37.404;2022-08-04T02:39:09;99940.75;;;26.83;49.09
24620;BME280;12763;55.802;37.404;2022-08-04T02:41:37;99930.63;;;27.05;48.62
24620;BME280;12763;55.802;37.404;2022-08-04T02:44:08;99939.00;;;27.10;48.18
24620;BME280;12763;55.802;37.404;2022-08-04T02:46:37;99942.38;;;26.98;48.09
24620;BME280;12763;55.802;37.404;2022-08-04T02:49:05;99935.06;;;26.70;48.69
24620;BME280;12763;55.802;37.404;2022-08-04T02:51:44;99932.53;;;26.68;49.27
24620;BME280;12763;55.802;37.404;2022-08-04T02:54:10;99927.31;;;26.48;49.39
24620;BME280;12763;55.802;37.404;2022-08-04T02:56:40;99933.16;;;26.38;49.54
24620;BME280;12763;55.802;37.404;2022-08-04T02:59:12;99949.28;;;26.38;49.55
24620;BME280;12763;55.802;37.404;2022-08-04T03:01:39;99945.00;;;26.40;49.39
24620;BME280;12763;55.802;37.404;2022-08-04T03:18:15;99949.88;;;27.30;47.75
24620;BME280;12763;55.802;37.404;2022-08-04T03:37:02;99956.97;;;27.05;48.99
24620;BME280;12763;55.802;37.404;2022-08-04T03:51:02;99976.94;;;27.36;49.13
24620;BME280;12763;55.802;37.404;2022-08-04T03:56:33;99979.41;;;27.87;47.92
24620;BME280;12763;55.802;37.404;2022-08-04T04:02:15;99980.75;;;27.89;47.17
24620;BME280;12763;55.802;37.404;2022-08-04T04:04:59;99985.91;;;27.65;47.91
24620;BME280;12763;55.802;37.404;2022-08-04T04:10:29;99989.72;;;27.83;47.35
24620;BME280;12763;55.802;37.404;2022-08-04T04:22:02;99994.31;;;28.45;45.70
24620;BME280;12763;55.802;37.404;2022-08-04T04:27:39;99996.28;;;28.67;45.30
24620;BME280;12763;55.802;37.404;2022-08-04T04:30:35;99995.13;;;28.68;45.10
24620;BME280;12763;55.802;37.404;2022-08-04T04:33:25;99999.06;;;28.58;44.75
24620;BME280;12763;55.802;37.404;2022-08-04T04:38:37;100001.16;;;28.67;45.53
24620;BME280;12763;55.802;37.404;2022-08-04T04:41:35;100002.16;;;28.71;45.67
24620;BME280;12763;55.802;37.404;2022-08-04T04:47:23;100000.28;;;28.97;44.28
24620;BME280;12763;55.802;37.404;2022-08-04T04:50:33;100014.13;;;28.98;45.37
24620;BME280;12763;55.802;37.404;2022-08-04T04:56:10;100002.78;;;28.98;44.88
24620;BME280;12763;55.802;37.404;2022-08-04T04:58:40;100001.91;;;28.89;44.54
24620;BME280;12763;55.802;37.404;2022-08-04T05:12:47;100005.81;;;29.10;44.71
24620;BME280;12763;55.802;37.404;2022-08-04T05:15:18;100013.34;;;29.15;44.25
24620;BME280;12763;55.802;37.404;2022-08-04T05:17:48;100006.72;;;29.28;43.81
24620;BME280;12763;55.802;37.404;2022-08-04T05:20:23;100009.41;;;29.33;44.02
24620;BME280;12763;55.802;37.404;2022-08-04T05:23:05;100013.25;;;29.37;44.10
24620;BME280;12763;55.802;37.404;2022-08-04T05:26:05;100009.63;;;29.54;43.76
24620;BME280;12763;55.802;37.404;2022-08-04T05:28:37;100016.44;;;29.53;43.38
24620;BME280;12763;55.802;37.404;2022-08-04T05:31:10;100009.13;;;29.60;43.44
24620;BME280;12763;55.802;37.404;2022-08-04T05:34:13;100008.13;;;29.74;43.61
24620;BME280;12763;55.802;37.404;2022-08-04T05:36:46;100003.13;;;29.88;42.29
24620;BME280;12763;55.802;37.404;2022-08-04T05:39:18;100015.00;;;29.81;43.04
24620;BME280;12763;55.802;37.404;2022-08-04T05:41:44;100006.13;;;29.91;41.66
24620;BME280;12763;55.802;37.404;2022-08-04T05:44:12;100009.81;;;29.83;42.41
24620;BME280;12763;55.802;37.404;2022-08-04T05:46:39;100016.00;;;29.77;42.59
24620;BME280;12763;55.802;37.404;2022-08-04T05:49:07;100014.34;;;30.01;41.40
24620;BME280;12763;55.802;37.404;2022-08-04T05:51:34;100020.34;;;29.91;41.45
24620;BME280;12763;55.802;37.404;2022-08-04T05:54:01;100012.31;;;29.76;42.22
24620;BME280;12763;55.802;37.404;2022-08-04T05:56:27;100020.88;;;29.93;41.44
24620;BME280;12763;55.802;37.404;2022-08-04T05:58:58;100017.84;;;30.07;41.52
24620;BME280;12763;55.802;37.404;2022-08-04T06:01:25;100012.81;;;30.21;41.04
24620;BME280;12763;55.802;37.404;2022-08-04T06:03:54;100015.31;;;30.05;40.60
24620;BME280;12763;55.802;37.404;2022-08-04T06:06:21;100015.31;;;29.71;40.81
24620;BME280;12763;55.802;37.404;2022-08-04T06:08:47;100015.31;;;29.88;41.37
24620;BME280;12763;55.802;37.404;2022-08-04T06:11:14;100009.97;;;30.12;40.99
24620;BME280;12763;55.802;37.404;2022-08-04T06:13:43;100006.28;;;30.12;40.72
24620;BME280;12763;55.802;37.404;2022-08-04T06:16:13;100012.16;;;30.07;40.03
24620;BME280;12763;55.802;37.404;2022-08-04T06:18:42;100016.13;;;30.32;39.89
24620;BME280;12763;55.802;37.404;2022-08-04T06:21:10;100014.63;;;30.34;39.54
24620;BME280;12763;55.802;37.404;2022-08-04T06:23:39;100018.28;;;30.52;39.97
24620;BME280;12763;55.802;37.404;2022-08-04T06:26:09;100011.97;;;30.38;40.18
24620;BME280;12763;55.802;37.404;2022-08-04T06:28:36;100021.94;;;30.61;39.88
24620;BME280;12763;55.802;37.404;2022-08-04T06:31:03;100012.91;;;30.59;38.83
24620;BME280;12763;55.802;37.404;2022-08-04T06:33:33;100019.09;;;30.61;39.27
24620;BME280;12763;55.802;37.404;2022-08-04T06:36:01;100010.78;;;30.85;38.87
24620;BME280;12763;55.802;37.404;2022-08-04T06:38:28;100014.28;;;30.91;38.52
24620;BME280;12763;55.802;37.404;2022-08-04T06:40:55;100015.94;;;30.92;38.00
24620;BME280;12763;55.802;37.404;2022-08-04T06:43:28;100014.50;;;30.77;38.27
24620;BME280;12763;55.802;37.404;2022-08-04T06:45:58;100022.09;;;30.64;38.61
24620;BME280;12763;55.802;37.404;2022-08-04T06:48:25;100005.47;;;30.75;38.68
24620;BME280;12763;55.802;37.404;2022-08-04T06:50:52;100020.03;;;30.82;38.68
24620;BME280;12763;55.802;37.404;2022-08-04T06:53:18;100019.53;;;30.80;38.05
24620;BME280;12763;55.802;37.404;2022-08-04T06:55:45;100015.47;;;30.98;38.94
24620;BME280;12763;55.802;37.404;2022-08-04T06:58:12;100013.91;;;31.09;38.31
24620;BME280;12763;55.802;37.404;2022-08-04T07:00:40;100017.75;;;31.05;37.42
24620;BME280;12763;55.802;37.404;2022-08-04T07:03:08;100022.00;;;30.99;37.12
24620;BME280;12763;55.802;37.404;2022-08-04T07:05:35;100017.97;;;30.91;38.06
24620;BME280;12763;55.802;37.404;2022-08-04T07:08:01;100011.72;;;31.06;37.48
24620;BME280;12763;55.802;37.404;2022-08-04T07:10:29;100008.09;;;30.97;37.18
24620;BME280;12763;55.802;37.404;2022-08-04T07:12:59;100016.59;;;30.59;35.11
24620;BME280;12763;55.802;37.404;2022-08-04T07:15:26;100004.78;;;30.78;36.39
24620;BME280;12763;55.802;37.404;2022-08-04T07:17:54;100002.19;;;31.02;36.01
24620;BME280;12763;55.802;37.404;2022-08-04T07:20:28;100010.00;;;31.14;37.34
24620;BME280;12763;55.802;37.404;2022-08-04T07:22:55;100010.78;;;30.85;36.82
24620;BME280;12763;55.802;37.404;2022-08-04T07:25:21;100008.97;;;30.80;36.99
24620;BME280;12763;55.802;37.404;2022-08-04T07:27:48;100006.81;;;30.69;36.91
24620;BME280;12763;55.802;37.404;2022-08-04T07:30:15;100008.91;;;30.98;36.55
24620;BME280;12763;55.802;37.404;2022-08-04T07:32:42;100007.75;;;30.99;36.41
24620;BME280;12763;55.802;37.404;2022-08-04T07:35:12;100010.50;;;31.16;35.53
24620;BME280;12763;55.802;37.404;2022-08-04T07:37:38;100005.94;;;31.23;35.92
24620;BME280;12763;55.802;37.404;2022-08-04T07:40:05;100010.06;;;31.34;36.35
24620;BME280;12763;55.802;37.404;2022-08-04T07:42:31;100005.75;;;31.28;34.71
24620;BME280;12763;55.802;37.404;2022-08-04T07:44:58;100008.69;;;31.11;35.48
24620;BME280;12763;55.802;37.404;2022-08-04T07:47:29;100008.00;;;31.14;35.04
24620;BME280;12763;55.802;37.404;2022-08-04T07:49:55;100004.53;;;31.29;35.42
24620;BME280;12763;55.802;37.404;2022-08-04T07:52:21;100006.00;;;31.35;35.04
24620;BME280;12763;55.802;37.404;2022-08-04T07:54:48;99995.50;;;31.27;34.38
24620;BME280;12763;55.802;37.404;2022-08-04T07:57:19;100007.56;;;31.04;33.26
24620;BME280;12763;55.802;37.404;2022-08-04T07:59:46;100003.56;;;31.25;33.28
24620;BME280;12763;55.802;37.404;2022-08-04T08:02:13;100005.63;;;31.16;34.31
24620;BME280;12763;55.802;37.404;2022-08-04T08:04:41;100004.00;;;31.36;33.38
24620;BME280;12763;55.802;37.404;2022-08-04T08:07:07;100004.94;;;31.49;35.16
24620;BME280;12763;55.802;37.404;2022-08-04T08:09:33;100004.13;;;31.69;34.49
24620;BME280;12763;55.802;37.404;2022-08-04T08:12:00;99998.75;;;31.47;35.18
24620;BME280;12763;55.802;37.404;2022-08-04T08:14:27;100000.22;;;31.53;35.73
24620;BME280;12763;55.802;37.404;2022-08-04T08:16:54;100003.69;;;31.79;34.67
24620;BME280;12763;55.802;37.404;2022-08-04T08:19:20;100001.53;;;31.96;34.43
24620;BME280;12763;55.802;37.404;2022-08-04T08:21:47;100007.94;;;31.93;33.89
24620;BME280;12763;55.802;37.404;2022-08-04T08:24:14;100006.38;;;32.05;34.23
24620;BME280;12763;55.802;37.404;2022-08-04T08:26:41;100011.75;;;32.06;34.55
24620;BME280;12763;55.802;37.404;2022-08-04T08:29:07;100008.78;;;31.94;33.31
24620;BME280;12763;55.802;37.404;2022-08-04T08:31:33;100009.78;;;31.98;34.25
24620;BME280;12763;55.802;37.404;2022-08-04T08:34:00;100008.22;;;31.80;33.58
24620;BME280;12763;55.802;37.404;2022-08-04T08:36:45;100010.53;;;32.07;33.66
24620;BME280;12763;55.802;37.404;2022-08-04T08:39:27;100006.97;;;32.10;33.50
24620;BME280;12763;55.802;37.404;2022-08-04T08:45:19;100001.06;;;32.15;33.80
24620;BME280;12763;55.802;37.404;2022-08-04T08:48:28;100006.50;;;32.08;32.58
24620;BME280;12763;55.802;37.404;2022-08-04T08:51:35;99994.81;;;32.01;32.24
24620;BME280;12763;55.802;37.404;2022-08-04T08:57:21;99996.22;;;32.28;33.67
24620;BME280;12763;55.802;37.404;2022-08-04T09:02:41;99984.44;;;32.17;34.66
24620;BME280;12763;55.802;37.404;2022-08-04T09:05:21;99995.94;;;32.21;34.38
24620;BME280;12763;55.802;37.404;2022-08-04T09:10:58;99998.03;;;32.32;32.70
24620;BME280;12763;55.802;37.404;2022-08-04T09:13:47;100000.78;;;32.41;33.40
24620;BME280;12763;55.802;37.404;2022-08-04T09:19:22;100002.28;;;32.59;32.41
24620;BME280;12763;55.802;37.404;2022-08-04T09:22:03;99999.66;;;32.54;32.42
24620;BME280;12763;55.802;37.404;2022-08-04T09:24:49;100003.78;;;32.44;32.79
24620;BME280;12763;55.802;37.404;2022-08-04T09:27:18;100007.66;;;32.61;32.71
24620;BME280;12763;55.802;37.404;2022-08-04T09:30:04;99995.75;;;32.71;32.53
24620;BME280;12763;55.802;37.404;2022-08-04T09:35:22;99995.66;;;33.03;32.51
24620;BME280;12763;55.802;37.404;2022-08-04T09:43:27;99999.19;;;33.85;30.67
24620;BME280;12763;55.802;37.404;2022-08-04T09:46:17;99991.94;;;34.15;30.55
24620;BME280;12763;55.802;37.404;2022-08-04T09:54:49;100003.88;;;34.05;29.24
24620;BME280;12763;55.802;37.404;2022-08-04T10:00:06;100002.41;;;34.23;28.49
24620;BME280;12763;55.802;37.404;2022-08-04T10:02:43;99999.50;;;34.51;28.54
24620;BME280;12763;55.802;37.404;2022-08-04T10:05:13;99997.34;;;34.76;30.11
24620;BME280;12763;55.802;37.404;2022-08-04T10:10:41;100003.09;;;35.23;28.61
24620;BME280;12763;55.802;37.404;2022-08-04T10:16:19;99996.09;;;35.55;27.79
24620;BME280;12763;55.802;37.404;2022-08-04T10:19:00;99993.94;;;35.52;27.24
24620;BME280;12763;55.802;37.404;2022-08-04T10:21:41;99988.06;;;35.80;27.06
24620;BME280;12763;55.802;37.404;2022-08-04T10:24:26;99993.44;;;36.01;27.15
24620;BME280;12763;55.802;37.404;2022-08-04T10:29:26;99990.59;;;36.20;27.80
24620;BME280;12763;55.802;37.404;2022-08-04T10:32:07;99989.81;;;36.61;27.57
24620;BME280;12763;55.802;37.404;2022-08-04T10:34:42;99990.06;;;36.75;27.38
24620;BME280;12763;55.802;37.404;2022-08-04T10:37:18;99991.53;;;36.88;27.75
24620;BME280;12763;55.802;37.404;2022-08-04T10:39:52;99991.78;;;36.38;26.59
24620;BME280;12763;55.802;37.404;2022-08-04T10:43:05;99990.28;;;35.36;27.95
24620;BME280;12763;55.802;37.404;2022-08-04T10:45:41;99985.13;;;35.26;29.27
24620;BME280;12763;55.802;37.404;2022-08-04T10:48:28;99990.88;;;36.34;27.28
24620;BME280;12763;55.802;37.404;2022-08-04T10:51:22;99992.63;;;37.26;26.04
24620;BME280;12763;55.802;37.404;2022-08-04T10:53:56;99997.19;;;37.53;26.53
24620;BME280;12763;55.802;37.404;2022-08-04T10:56:31;99999.59;;;37.51;25.57
24620;BME280;12763;55.802;37.404;2022-08-04T10:59:02;99990.44;;;38.31;24.68
24620;BME280;12763;55.802;37.404;2022-08-04T11:01:38;99994.94;;;38.62;24.91
24620;BME280;12763;55.802;37.404;2022-08-04T11:04:46;99988.78;;;36.95;26.09
24620;BME280;12763;55.802;37.404;2022-08-04T11:07:14;99990.78;;;37.14;26.29
24620;BME280;12763;55.802;37.404;2022-08-04T11:09:43;99996.00;;;37.84;25.50
24620;BME280;12763;55.802;37.404;2022-08-04T11:12:15;99993.03;;;38.06;24.65
24620;BME280;12763;55.802;37.404;2022-08-04T11:17:38;100000.84;;;38.39;24.71
24620;BME280;12763;55.802;37.404;2022-08-04T11:20:28;99990.28;;;38.87;25.95
24620;BME280;12763;55.802;37.404;2022-08-04T11:23:05;99998.69;;;39.06;25.14
24620;BME280;12763;55.802;37.404;2022-08-04T11:26:13;99998.28;;;39.04;24.73
24620;BME280;12763;55.802;37.404;2022-08-04T11:29:15;100000.97;;;38.46;25.68
24620;BME280;12763;55.802;37.404;2022-08-04T11:31:48;100002.91;;;38.75;24.21
24620;BME280;12763;55.802;37.404;2022-08-04T11:34:25;99997.34;;;38.93;25.13
24620;BME280;12763;55.802;37.404;2022-08-04T11:37:14;99988.19;;;38.84;23.88
24620;BME280;12763;55.802;37.404;2022-08-04T11:39:44;99988.22;;;38.88;24.39
24620;BME280;12763;55.802;37.404;2022-08-04T11:42:25;99988.50;;;39.19;25.11
24620;BME280;12763;55.802;37.404;2022-08-04T11:50:13;99981.16;;;39.25;24.52
24620;BME280;12763;55.802;37.404;2022-08-04T11:52:45;99972.22;;;39.45;24.40
24620;BME280;12763;55.802;37.404;2022-08-04T11:55:15;99978.59;;;39.68;24.16
24620;BME280;12763;55.802;37.404;2022-08-04T11:57:42;99983.19;;;39.76;24.33
24620;BME280;12763;55.802;37.404;2022-08-04T12:00:11;99978.28;;;39.25;25.26
24620;BME280;12763;55.802;37.404;2022-08-04T12:09:02;99972.44;;;38.38;25.75
24620;BME280;12763;55.802;37.404;2022-08-04T12:17:04;99970.28;;;39.63;25.22
24620;BME280;12763;55.802;37.404;2022-08-04T12:22:10;99969.22;;;39.88;23.98
24620;BME280;12763;55.802;37.404;2022-08-04T12:24:46;99954.81;;;39.30;25.81
24620;BME280;12763;55.802;37.404;2022-08-04T12:27:23;99957.56;;;39.74;24.04
24620;BME280;12763;55.802;37.404;2022-08-04T12:29:50;99960.97;;;39.87;24.58
24620;BME280;12763;55.802;37.404;2022-08-04T12:38:04;99963.78;;;40.73;23.57
24620;BME280;12763;55.802;37.404;2022-08-04T12:40:37;99954.69;;;41.10;22.81
24620;BME280;12763;55.802;37.404;2022-08-04T12:45:50;99956.38;;;41.04;23.57
24620;BME280;12763;55.802;37.404;2022-08-04T12:48:17;99955.09;;;40.87;23.47
24620;BME280;12763;55.802;37.404;2022-08-04T12:50:49;99947.09;;;39.49;24.47
24620;BME280;12763;55.802;37.404;2022-08-04T12:53:17;99948.34;;;40.23;24.21
24620;BME280;12763;55.802;37.404;2022-08-04T12:55:46;99950.06;;;40.45;23.96
24620;BME280;12763;55.802;37.404;2022-08-04T12:58:19;99944.38;;;41.02;23.23
24620;BME280;12763;55.802;37.404;2022-08-04T13:00:52;99950.84;;;40.35;23.95
24620;BME280;12763;55.802;37.404;2022-08-04T13:03:23;99950.19;;;38.35;25.24
24620;BME280;12763;55.802;37.404;2022-08-04T13:05:53;99943.28;;;38.83;24.97
24620;BME280;12763;55.802;37.404;2022-08-04T13:08:21;99950.59;;;39.75;23.85
24620;BME280;12763;55.802;37.404;2022-08-04T13:10:51;99947.94;;;40.28;24.21
24620;BME280;12763;55.802;37.404;2022-08-04T13:13:20;99950.53;;;40.83;23.82
24620;BME280;12763;55.802;37.404;2022-08-04T13:16:06;99947.69;;;41.15;23.29
24620;BME280;12763;55.802;37.404;2022-08-04T13:18:36;99945.59;;;41.50;23.37
24620;BME280;12763;55.802;37.404;2022-08-04T13:21:17;99944.34;;;41.55;23.18
24620;BME280;12763;55.802;37.404;2022-08-04T13:23:45;99940.50;;;40.24;24.91
24620;BME280;12763;55.802;37.404;2022-08-04T13:26:12;99935.97;;;38.96;25.33
24620;BME280;12763;55.802;37.404;2022-08-04T13:28:42;99937.56;;;37.83;26.87
24620;BME280;12763;55.802;37.404;2022-08-04T13:31:11;99936.69;;;37.49;27.20
24620;BME280;12763;55.802;37.404;2022-08-04T13:33:40;99934.66;;;38.13;26.71
24620;BME280;12763;55.802;37.404;2022-08-04T13:36:08;99938.41;;;39.45;25.39
24620;BME280;12763;55.802;37.404;2022-08-04T13:38:38;99935.53;;;40.17;24.59
24620;BME280;12763;55.802;37.404;2022-08-04T13:41:06;99931.53;;;40.89;24.10
24620;BME280;12763;55.802;37.404;2022-08-04T13:43:42;99923.66;;;40.82;23.61
24620;BME280;12763;55.802;37.404;2022-08-04T13:46:13;99938.16;;;40.79;24.20
24620;BME280;12763;55.802;37.404;2022-08-04T13:48:42;99929.06;;;41.01;23.73
24620;BME280;12763;55.802;37.404;2022-08-04T13:51:10;99933.19;;;40.90;23.45
24620;BME280;12763;55.802;37.404;2022-08-04T13:53:38;99925.94;;;39.99;24.27
24620;BME280;12763;55.802;37.404;2022-08-04T13:56:06;99919.53;;;39.62;24.67
24620;BME280;12763;55.802;37.404;2022-08-04T13:58:40;99912.81;;;38.89;25.70
24620;BME280;12763;55.802;37.404;2022-08-04T14:01:25;99923.81;;;37.99;26.79
24620;BME280;12763;55.802;37.404;2022-08-04T14:04:11;99904.44;;;37.11;28.02
24620;BME280;12763;55.802;37.404;2022-08-04T14:09:21;99912.22;;;36.19;29.11
24620;BME280;12763;55.802;37.404;2022-08-04T14:12:03;99904.75;;;36.15;29.40
24620;BME280;12763;55.802;37.404;2022-08-04T14:14:31;99904.75;;;35.95;29.72
24620;BME280;12763;55.802;37.404;2022-08-04T14:17:04;99901.56;;;35.81;30.92
24620;BME280;12763;55.802;37.404;2022-08-04T14:28:00;99895.19;;;38.13;28.19
24620;BME280;12763;55.802;37.404;2022-08-04T14:30:31;99901.34;;;39.51;25.44
24620;BME280;12763;55.802;37.404;2022-08-04T14:33:09;99909.97;;;40.37;24.61
24620;BME280;12763;55.802;37.404;2022-08-04T14:35:36;99910.06;;;40.97;23.85
24620;BME280;12763;55.802;37.404;2022-08-04T14:38:05;99902.59;;;41.28;23.73
24620;BME280;12763;55.802;37.404;2022-08-04T14:40:34;99911.63;;;41.62;23.54
24620;BME280;12763;55.802;37.404;2022-08-04T14:43:01;99912.91;;;41.46;23.36
24620;BME280;12763;55.802;37.404;2022-08-04T14:45:36;99907.13;;;41.46;23.40
24620;BME280;12763;55.802;37.404;2022-08-04T14:48:19;99913.31;;;41.55;23.52
24620;BME280;12763;55.802;37.404;2022-08-04T14:50:47;99908.28;;;41.70;23.08
24620;BME280;12763;55.802;37.404;2022-08-04T14:53:19;99913.34;;;40.81;23.35
24620;BME280;12763;55.802;37.404;2022-08-04T14:55:51;99906.44;;;39.75;24.33
24620;BME280;12763;55.802;37.404;2022-08-04T14:58:22;99909.31;;;39.71;24.21
24620;BME280;12763;55.802;37.404;2022-08-04T15:00:49;99909.59;;;39.56;24.47
24620;BME280;12763;55.802;37.404;2022-08-04T15:03:18;99903.53;;;39.10;25.19
24620;BME280;12763;55.802;37.404;2022-08-04T15:05:45;99907.75;;;37.98;26.47
24620;BME280;12763;55.802;37.404;2022-08-04T15:08:16;99912.50;;;37.01;27.23
24620;BME280;12763;55.802;37.404;2022-08-04T15:10:42;99907.75;;;36.90;27.88
24620;BME280;12763;55.802;37.404;2022-08-04T15:13:09;99896.66;;;37.67;26.62
24620;BME280;12763;55.802;37.404;2022-08-04T15:15:41;99899.38;;;37.04;27.61
24620;BME280;12763;55.802;37.404;2022-08-04T15:18:11;99908.22;;;36.05;28.95
24620;BME280;12763;55.802;37.404;2022-08-04T15:20:38;99902.53;;;35.00;29.62
24620;BME280;12763;55.802;37.404;2022-08-04T15:23:06;99895.94;;;34.65;29.70
24620;BME280;12763;55.802;37.404;2022-08-04T15:25:34;99896.50;;;34.11;30.46
24620;BME280;12763;55.802;37.404;2022-08-04T15:28:03;99893.03;;;34.06;30.09
24620;BME280;12763;55.802;37.404;2022-08-04T15:30:30;99896.22;;;33.89;31.04
24620;BME280;12763;55.802;37.404;2022-08-04T15:33:00;99894.19;;;33.74;30.91
24620;BME280;12763;55.802;37.404;2022-08-04T15:35:27;99896.19;;;33.73;30.70
24620;BME280;12763;55.802;37.404;2022-08-04T15:40:34;99902.56;;;33.66;30.79
24620;BME280;12763;55.802;37.404;2022-08-04T15:45:58;99897.16;;;33.77;30.93
24620;BME280;12763;55.802;37.404;2022-08-04T15:48:31;99902.03;;;33.77;31.39
24620;BME280;12763;55.802;37.404;2022-08-04T15:53:23;99898.28;;;33.88;31.02
24620;BME280;12763;55.802;37.404;2022-08-04T15:55:49;99892.13;;;34.45;30.85
24620;BME280;12763;55.802;37.404;2022-08-04T15:58:17;99898.50;;;34.70;31.39
24620;BME280;12763;55.802;37.404;2022-08-04T16:19:15;99918.41;;;33.64;34.22
24620;BME280;12763;55.802;37.404;2022-08-04T16:21:48;99916.47;;;33.80;33.58
24620;BME280;12763;55.802;37.404;2022-08-04T16:24:18;99920.81;;;33.62;34.02
24620;BME280;12763;55.802;37.404;2022-08-04T16:27:05;99918.72;;;33.35;35.36
24620;BME280;12763;55.802;37.404;2022-08-04T16:29:41;99916.25;;;32.85;35.99
24620;BME280;12763;55.802;37.404;2022-08-04T16:34:40;99920.25;;;32.47;36.40
24620;BME280;12763;55.802;37.404;2022-08-04T16:37:11;99925.13;;;32.47;36.69
24620;BME280;12763;55.802;37.404;2022-08-04T16:39:39;99923.69;;;32.41;36.63
24620;BME280;12763;55.802;37.404;2022-08-04T16:42:31;99928.66;;;32.32;36.89
24620;BME280;12763;55.802;37.404;2022-08-04T16:50:22;99928.22;;;31.76;37.58
24620;BME280;12763;55.802;37.404;2022-08-04T16:52:51;99930.94;;;31.73;37.35
24620;BME280;12763;55.802;37.404;2022-08-04T16:55:18;99937.97;;;31.55;38.01
24620;BME280;12763;55.802;37.404;2022-08-04T16:57:49;99930.31;;;31.47;38.31
24620;BME280;12763;55.802;37.404;2022-08-04T17:00:16;99931.63;;;31.28;38.36
24620;BME280;12763;55.802;37.404;2022-08-04T17:02:43;99928.97;;;31.23;38.50
24620;BME280;12763;55.802;37.404;2022-08-04T17:05:21;99935.38;;;31.20;38.79
24620;BME280;12763;55.802;37.404;2022-08-04T17:07:52;99932.38;;;31.17;38.65
24620;BME280;12763;55.802;37.404;2022-08-04T17:10:19;99925.19;;;31.11;38.86
24620;BME280;12763;55.802;37.404;2022-08-04T17:12:45;99933.22;;;31.17;38.64
24620;BME280;12763;55.802;37.404;2022-08-04T17:15:21;99934.09;;;31.09;38.90
24620;BME280;12763;55.802;37.404;2022-08-04T17:17:48;99933.09;;;31.05;38.80
24620;BME280;12763;55.802;37.404;2022-08-04T17:20:14;99940.44;;;31.15;38.76